createdAt,value
2023-04-13T00:01:11.289Z,99502.91
2023-04-13T00:03:39.137Z,99491.13
2023-04-13T00:06:10.615Z,99499.41
2023-04-13T00:08:37.647Z,99509.88
2023-04-13T00:11:06.660Z,99503.19
2023-04-13T00:13:40.798Z,99499.44
2023-04-13T00:16:10.216Z,99505.84
2023-04-13T00:18:37.332Z,99510.41
2023-04-13T00:21:04.564Z,99521.91
2023-04-13T00:23:34.384Z,99507.47
2023-04-13T00:26:01.534Z,99482.03
2023-04-13T00:28:29.929Z,99493.28
2023-04-13T00:30:59.408Z,99504.50
2023-04-13T00:33:26.628Z,99510.66
2023-04-13T00:35:53.539Z,99503.72
2023-04-13T00:38:20.402Z,99501.84
2023-04-13T00:40:47.431Z,99497.28
2023-04-13T00:43:14.947Z,99504.47
2023-04-13T00:45:43.382Z,99512.50
2023-04-13T00:48:13.480Z,99517.56
2023-04-13T00:50:42.549Z,99521.03
2023-04-13T00:53:13.656Z,99535.22
2023-04-13T00:55:42.828Z,99543.75
2023-04-13T00:58:10.610Z,99537.88
2023-04-13T01:00:39.143Z,99548.28
2023-04-13T01:03:06.837Z,99557.66
2023-04-13T01:05:43.716Z,99557.66
2023-04-13T01:08:58.074Z,99553.38
2023-04-13T01:11:39.460Z,99563.47
2023-04-13T01:14:15.330Z,99582.19
2023-04-13T01:16:56.715Z,99591.28
2023-04-13T01:19:56.858Z,99579.22
2023-04-13T01:22:29.899Z,99571.19
2023-04-13T01:25:22.543Z,99570.41
2023-04-13T01:28:05.387Z,99597.09
2023-04-13T01:30:36.087Z,99619.56
2023-04-13T01:33:05.804Z,99607.50
2023-04-13T01:35:35.074Z,99614.72
2023-04-13T01:38:03.215Z,99638.53
2023-04-13T01:40:33.132Z,99634.22
2023-04-13T01:43:00.182Z,99633.16
2023-04-13T01:45:47.696Z,99631.28
2023-04-13T01:48:29.910Z,99636.88
2023-04-13T01:51:25.376Z,99649.16
2023-04-13T01:54:20.531Z,99645.41
2023-04-13T01:56:48.877Z,99666.00
2023-04-13T01:59:16.812Z,99657.44
2023-04-13T02:01:44.680Z,99663.59
2023-04-13T02:04:12.489Z,99670.50
2023-04-13T02:06:42.405Z,99679.06
2023-04-13T02:09:10.996Z,99678.53
2023-04-13T02:11:38.532Z,99679.34
2023-04-13T02:14:07.855Z,99677.72
2023-04-13T02:16:35.272Z,99675.56
2023-04-13T02:19:02.483Z,99677.69
2023-04-13T02:21:30.544Z,99675.28
2023-04-13T02:23:57.883Z,99679.25
2023-04-13T02:26:26.293Z,99677.88
2023-04-13T02:28:53.540Z,99679.97
2023-04-13T02:31:23.305Z,99676.75
2023-04-13T02:33:51.553Z,99690.91
2023-04-13T02:36:19.295Z,99683.41
2023-04-13T02:38:54.578Z,99668.41
2023-04-13T02:41:29.629Z,99687.06
2023-04-13T02:43:57.505Z,99679.63
2023-04-13T02:46:28.398Z,99684.09
2023-04-13T02:49:03.555Z,99677.94
2023-04-13T02:51:36.308Z,99679.25
2023-04-13T02:54:04.110Z,99676.81
2023-04-13T02:56:36.137Z,99689.13
2023-04-13T02:59:03.843Z,99678.41
2023-04-13T03:01:31.480Z,99682.38
2023-04-13T03:03:58.777Z,99693.31
2023-04-13T03:06:28.185Z,99696.75
2023-04-13T03:08:59.625Z,99697.81
2023-04-13T03:11:28.089Z,99706.03
2023-04-13T03:14:29.940Z,99704.31
2023-04-13T03:17:08.450Z,99710.16
2023-04-13T03:19:40.493Z,99715.44
2023-04-13T03:22:08.280Z,99716.50
2023-04-13T03:24:40.118Z,99719.69
2023-04-13T03:27:08.767Z,99724.22
2023-04-13T03:29:42.673Z,99721.25
2023-04-13T03:32:14.024Z,99715.09
2023-04-13T03:34:45.165Z,99723.34
2023-04-13T03:37:14.042Z,99716.97
2023-04-13T03:39:41.384Z,99725.22
2023-04-13T03:42:12.049Z,99721.19
2023-04-13T03:44:44.972Z,99727.06
2023-04-13T03:47:12.795Z,99728.13
2023-04-13T03:49:40.084Z,99719.06
2023-04-13T03:52:07.003Z,99712.94
2023-04-13T03:54:40.100Z,99725.50
2023-04-13T03:57:07.474Z,99728.19
2023-04-13T03:59:35.234Z,99732.47
2023-04-13T04:02:04.029Z,99735.13
2023-04-13T04:04:33.725Z,99738.31
2023-04-13T04:07:00.866Z,99754.31
2023-04-13T04:09:28.021Z,99744.13
2023-04-13T04:11:56.610Z,99757.47
2023-04-13T04:14:35.946Z,99761.22
2023-04-13T04:17:11.405Z,99755.78
2023-04-13T04:19:38.685Z,99764.28
2023-04-13T04:22:09.158Z,99765.34
2023-04-13T04:24:39.943Z,99770.69
2023-04-13T04:27:07.623Z,99774.41
2023-04-13T04:29:34.784Z,99776.00
2023-04-13T04:32:19.998Z,99774.66
2023-04-13T04:34:48.126Z,99776.50
2023-04-13T04:37:21.384Z,99787.50
2023-04-13T04:40:00.913Z,99782.16
2023-04-13T04:42:28.027Z,99786.94
2023-04-13T04:44:57.248Z,99801.38
2023-04-13T04:47:30.635Z,99807.22
2023-04-13T04:50:12.884Z,99803.50
2023-04-13T04:52:42.343Z,99797.91
2023-04-13T04:55:12.092Z,99794.13
2023-04-13T04:57:41.301Z,99787.50
2023-04-13T05:00:18.248Z,99790.72
2023-04-13T05:03:07.468Z,99789.09
2023-04-13T05:05:37.478Z,99794.44
2023-04-13T05:08:09.273Z,99790.72
2023-04-13T05:10:46.318Z,99800.66
2023-04-13T05:13:13.430Z,99792.97
2023-04-13T05:15:43.922Z,99790.88
2023-04-13T05:18:13.031Z,99781.56
2023-04-13T05:20:40.089Z,99799.16
2023-04-13T05:23:09.696Z,99817.34
2023-04-13T05:25:43.207Z,99823.50
2023-04-13T05:28:17.751Z,99817.91
2023-04-13T05:30:45.804Z,99820.09
2023-04-13T05:33:12.795Z,99821.69
2023-04-13T05:35:41.154Z,99811.31
2023-04-13T05:38:09.360Z,99816.47
2023-04-13T05:40:36.741Z,99837.88
2023-04-13T05:43:05.187Z,99836.31
2023-04-13T05:45:36.494Z,99835.00
2023-04-13T05:48:07.719Z,99834.25
2023-04-13T05:50:35.171Z,99836.44
2023-04-13T05:53:02.901Z,99837.25
2023-04-13T05:55:43.058Z,99835.38
2023-04-13T05:58:11.054Z,99844.00
2023-04-13T06:00:38.799Z,99837.09
2023-04-13T06:03:11.328Z,99855.28
2023-04-13T06:05:38.879Z,99860.13
2023-04-13T06:08:05.902Z,99855.88
2023-04-13T06:10:32.912Z,99883.22
2023-04-13T06:13:00.103Z,99872.28
2023-04-13T06:15:27.346Z,99877.50
2023-04-13T06:17:54.657Z,99882.34
2023-04-13T06:20:21.848Z,99874.41
2023-04-13T06:22:49.925Z,99881.41
2023-04-13T06:25:19.949Z,99879.84
2023-04-13T06:27:49.740Z,99871.34
2023-04-13T06:30:18.188Z,99889.00
2023-04-13T06:32:47.181Z,99892.25
2023-04-13T06:35:17.347Z,99898.97
2023-04-13T06:37:47.286Z,99898.72
2023-04-13T06:40:21.039Z,99904.06
2023-04-13T06:42:57.784Z,99912.16
2023-04-13T06:45:33.904Z,99914.09
2023-04-13T06:48:07.056Z,99926.69
2023-04-13T06:50:35.746Z,99924.88
2023-04-13T06:53:04.391Z,99923.28
2023-04-13T06:55:31.639Z,99935.38
2023-04-13T06:57:59.141Z,99934.88
2023-04-13T07:00:30.127Z,99940.03
2023-04-13T07:03:00.249Z,99950.78
2023-04-13T07:05:28.187Z,99951.06
2023-04-13T07:08:00.599Z,99952.97
2023-04-13T07:10:29.003Z,99951.66
2023-04-13T07:12:59.175Z,99958.41
2023-04-13T07:15:28.850Z,99942.34
2023-04-13T07:17:55.971Z,99935.44
2023-04-13T07:20:23.125Z,99936.50
2023-04-13T07:22:51.375Z,99931.94
2023-04-13T07:25:18.501Z,99939.69
2023-04-13T07:27:46.164Z,99941.31
2023-04-13T07:30:14.284Z,99941.59
2023-04-13T07:32:45.260Z,99946.41
2023-04-13T07:35:13.125Z,99948.03
2023-04-13T07:37:42.479Z,99938.13
2023-04-13T07:40:11.827Z,99953.41
2023-04-13T07:42:40.796Z,99952.09
2023-04-13T07:45:10.878Z,99965.78
2023-04-13T07:47:38.489Z,99970.94
2023-04-13T07:50:09.385Z,99961.34
2023-04-13T07:52:37.468Z,99965.66
2023-04-13T07:55:07.996Z,99957.97
2023-04-13T07:57:39.808Z,99964.69
2023-04-13T08:00:08.384Z,99970.31
2023-04-13T08:02:44.273Z,99963.16
2023-04-13T08:05:15.678Z,99965.59
2023-04-13T08:07:46.459Z,99966.16
2023-04-13T08:10:15.396Z,99970.47
2023-04-13T08:12:43.098Z,99976.41
2023-04-13T08:15:10.934Z,99973.47
2023-04-13T08:17:38.291Z,99981.28
2023-04-13T08:20:08.201Z,99984.22
2023-04-13T08:22:36.727Z,99989.59
2023-04-13T08:25:07.409Z,99987.53
2023-04-13T08:27:35.371Z,99988.09
2023-04-13T08:30:05.219Z,99994.53
2023-04-13T08:32:42.350Z,99991.59
2023-04-13T08:37:54.225Z,100004.78
2023-04-13T08:40:22.776Z,100015.25
2023-04-13T08:42:54.535Z,100003.97
2023-04-13T08:45:22.337Z,99998.59
2023-04-13T08:47:50.224Z,100005.56
2023-04-13T08:50:21.175Z,99992.69
2023-04-13T08:52:51.328Z,100003.44
2023-04-13T08:55:18.482Z,100014.72
2023-04-13T08:57:51.396Z,100003.97
2023-04-13T09:00:21.727Z,99997.25
2023-04-13T09:03:03.079Z,100018.47
2023-04-13T09:05:38.851Z,99998.56
2023-04-13T09:08:08.253Z,100000.16
2023-04-13T09:10:38.208Z,100006.56
2023-04-13T09:13:05.908Z,100005.72
2023-04-13T09:15:33.258Z,100000.78
2023-04-13T09:18:21.125Z,100002.63
2023-04-13T09:21:00.439Z,100009.53
2023-04-13T09:23:28.092Z,100011.09
2023-04-13T09:26:08.844Z,100006.72
2023-04-13T09:28:47.974Z,100027.19
2023-04-13T09:31:15.695Z,100018.94
2023-04-13T09:33:52.455Z,100015.47
2023-04-13T09:36:21.655Z,100029.53
2023-04-13T09:38:58.773Z,100011.56
2023-04-13T09:41:40.367Z,100016.91
2023-04-13T09:44:20.611Z,100015.25
2023-04-13T09:47:02.516Z,100015.41
2023-04-13T09:49:41.881Z,100018.47
2023-04-13T09:52:23.471Z,100027.94
2023-04-13T09:54:57.170Z,100006.97
2023-04-13T09:57:33.458Z,100007.47
2023-04-13T10:00:01.617Z,100005.72
2023-04-13T10:02:39.942Z,100018.13
2023-04-13T10:05:10.165Z,100007.72
2023-04-13T10:07:38.043Z,100013.69
2023-04-13T10:10:05.690Z,100006.09
2023-04-13T10:12:35.843Z,100011.69
2023-04-13T10:15:22.815Z,100011.88
2023-04-13T10:18:06.462Z,100008.75
2023-04-13T10:20:34.513Z,100012.47
2023-04-13T10:23:04.142Z,100014.28
2023-04-13T10:25:33.508Z,100021.47
2023-04-13T10:28:02.062Z,100016.47
2023-04-13T10:30:29.931Z,100008.72
2023-04-13T10:33:05.707Z,100003.19
2023-04-13T10:35:37.439Z,100016.25
2023-04-13T10:38:05.273Z,100010.03
2023-04-13T10:40:48.901Z,99999.09
2023-04-13T10:43:45.499Z,100019.88
2023-04-13T10:46:13.874Z,100024.22
2023-04-13T10:48:41.957Z,100023.25
2023-04-13T10:51:09.363Z,100029.50
2023-04-13T10:53:36.857Z,100035.63
2023-04-13T10:56:05.091Z,100032.41
2023-04-13T10:58:33.166Z,100038.09
2023-04-13T11:01:01.005Z,100041.84
2023-04-13T11:03:29.280Z,100035.75
2023-04-13T11:05:59.898Z,100037.13
2023-04-13T11:08:27.954Z,100048.03
2023-04-13T11:10:57.244Z,100045.22
2023-04-13T11:13:31.087Z,100053.22
2023-04-13T11:16:05.634Z,100061.69
2023-04-13T11:18:33.276Z,100051.41
2023-04-13T11:21:06.059Z,100049.03
2023-04-13T11:23:36.345Z,100047.50
2023-04-13T11:26:05.615Z,100049.63
2023-04-13T11:28:42.573Z,100060.47
2023-04-13T11:31:12.731Z,100060.22
2023-04-13T11:33:40.909Z,100064.28
2023-04-13T11:36:12.218Z,100060.34
2023-04-13T11:38:42.317Z,100062.25
2023-04-13T11:43:42.024Z,100064.13
2023-04-13T11:46:13.922Z,100058.31
2023-04-13T11:48:42.509Z,100067.22
2023-04-13T11:51:11.811Z,100059.94
2023-04-13T11:53:40.650Z,100063.78
2023-04-13T11:56:08.600Z,100074.59
2023-04-13T11:58:38.436Z,100070.59
2023-04-13T12:03:55.663Z,100067.84
2023-04-13T12:06:29.320Z,100071.19
2023-04-13T12:09:10.963Z,100069.38
2023-04-13T12:11:46.672Z,100073.69
2023-04-13T12:19:27.200Z,100076.47
2023-04-13T12:21:57.352Z,100072.28
2023-04-13T12:24:40.313Z,100058.31
2023-04-13T12:29:39.274Z,100066.25
2023-04-13T12:32:14.846Z,100073.19
2023-04-13T12:34:43.522Z,100069.34
2023-04-13T12:37:12.036Z,100072.53
2023-04-13T12:39:39.350Z,100069.25
2023-04-13T12:42:06.736Z,100066.75
2023-04-13T12:44:34.521Z,100066.88
2023-04-13T12:47:24.375Z,100062.19
2023-04-13T12:49:51.682Z,100058.66
2023-04-13T12:52:18.648Z,100049.63
2023-04-13T12:54:45.955Z,100057.66
2023-04-13T12:57:17.150Z,100041.94
2023-04-13T12:59:44.840Z,100039.31
2023-04-13T13:02:12.014Z,100044.22
2023-04-13T13:04:39.039Z,100043.94
2023-04-13T13:07:06.411Z,100042.59
2023-04-13T13:09:34.054Z,100036.94
2023-04-13T13:12:02.608Z,100033.22
2023-04-13T13:14:31.007Z,100029.66
2023-04-13T13:16:58.433Z,100038.78
2023-04-13T13:19:25.443Z,100036.88
2023-04-13T13:21:52.680Z,100036.91
2023-04-13T13:24:20.035Z,100037.09
2023-04-13T13:29:24.029Z,100038.13
2023-04-13T13:31:51.319Z,100034.53
2023-04-13T13:34:18.784Z,100033.13
2023-04-13T13:36:46.686Z,100027.53
2023-04-13T13:39:13.702Z,100031.88
2023-04-13T13:41:40.910Z,100027.25
2023-04-13T13:44:08.345Z,100047.88
2023-04-13T13:46:36.818Z,100052.69
2023-04-13T13:49:06.737Z,100057.81
2023-04-13T13:51:54.145Z,100045.63
2023-04-13T13:54:24.099Z,100043.19
2023-04-13T13:56:51.665Z,100027.28
2023-04-13T13:59:19.117Z,100036.09
2023-04-13T14:01:46.215Z,100039.97
2023-04-13T14:04:14.050Z,100046.34
2023-04-13T14:06:41.435Z,100052.25
2023-04-13T14:09:08.819Z,100029.97
2023-04-13T14:11:36.245Z,100033.06
2023-04-13T14:14:18.147Z,100043.09
2023-04-13T14:16:48.969Z,100045.94
2023-04-13T14:19:18.148Z,100046.25
2023-04-13T14:21:45.241Z,100052.94
2023-04-13T14:24:12.613Z,100037.97
2023-04-13T14:26:39.817Z,100032.00
2023-04-13T14:29:09.066Z,100030.13
2023-04-13T14:31:36.233Z,100039.00
2023-04-13T14:34:03.839Z,100037.38
2023-04-13T14:36:31.060Z,100035.53
2023-04-13T14:39:00.300Z,100044.44
2023-04-13T14:41:27.673Z,100058.28
2023-04-13T14:43:54.609Z,100066.78
2023-04-13T14:46:21.799Z,100039.84
2023-04-13T14:48:48.851Z,100055.66
2023-04-13T14:51:17.257Z,100053.75
2023-04-13T14:53:44.657Z,100054.22
2023-04-13T14:56:12.066Z,100061.19
2023-04-13T14:58:39.280Z,100061.31
2023-04-13T15:01:17.615Z,100058.50
2023-04-13T15:03:46.313Z,100072.94
2023-04-13T15:06:14.103Z,100070.63
2023-04-13T15:08:41.068Z,100070.34
2023-04-13T15:11:08.975Z,100064.78
2023-04-13T15:13:38.258Z,100075.13
2023-04-13T15:16:08.027Z,100068.16
2023-04-13T15:18:35.335Z,100073.84
2023-04-13T15:21:04.323Z,100084.50
2023-04-13T15:23:32.545Z,100095.66
2023-04-13T15:26:01.161Z,100100.56
2023-04-13T15:28:28.426Z,100103.00
2023-04-13T15:30:55.507Z,100104.34
2023-04-13T15:33:22.936Z,100096.88
2023-04-13T15:35:52.194Z,100100.63
2023-04-13T15:38:19.241Z,100100.34
2023-04-13T15:40:47.044Z,100110.59
2023-04-13T15:43:14.055Z,100104.63
2023-04-13T15:45:41.361Z,100119.63
2023-04-13T15:48:08.405Z,100119.13
2023-04-13T15:50:35.831Z,100121.69
2023-04-13T15:53:03.007Z,100126.25
2023-04-13T15:55:30.295Z,100126.03
2023-04-13T15:57:57.370Z,100128.56
2023-04-13T16:00:26.429Z,100133.19
2023-04-13T16:02:53.876Z,100140.84
2023-04-13T16:05:21.231Z,100148.38
2023-04-13T16:07:48.862Z,100156.66
2023-04-13T16:10:17.197Z,100146.56
2023-04-13T16:12:45.533Z,100127.56
2023-04-13T16:15:13.120Z,100147.97
2023-04-13T16:17:43.990Z,100152.59
2023-04-13T16:20:14.219Z,100150.38
2023-04-13T16:22:43.154Z,100159.69
2023-04-13T16:25:11.311Z,100154.22
2023-04-13T16:27:39.835Z,100158.00
2023-04-13T16:30:08.382Z,100167.75
2023-04-13T16:32:35.766Z,100166.13
2023-04-13T16:35:02.836Z,100167.59
2023-04-13T16:37:29.714Z,100179.06
2023-04-13T16:39:56.920Z,100184.03
2023-04-13T16:42:24.002Z,100184.44
2023-04-13T16:44:51.434Z,100185.84
2023-04-13T16:47:21.179Z,100192.25
2023-04-13T16:49:48.308Z,100184.34
2023-04-13T16:52:15.368Z,100193.78
2023-04-13T16:54:46.272Z,100196.63
2023-04-13T16:57:13.655Z,100197.56
2023-04-13T16:59:40.736Z,100198.22
2023-04-13T17:02:15.311Z,100202.13
2023-04-13T17:04:51.634Z,100197.91
2023-04-13T17:07:18.538Z,100205.75
2023-04-13T17:09:45.634Z,100212.81
2023-04-13T17:12:12.627Z,100209.66
2023-04-13T17:14:40.165Z,100212.66
2023-04-13T17:17:07.150Z,100214.81
2023-04-13T17:19:34.130Z,100220.84
2023-04-13T17:22:01.231Z,100220.38
2023-04-13T17:24:28.280Z,100216.13
2023-04-13T17:26:55.245Z,100223.19
2023-04-13T17:29:22.185Z,100223.22
2023-04-13T17:31:49.303Z,100225.16
2023-04-13T17:34:16.272Z,100227.09
2023-04-13T17:36:43.315Z,100226.91
2023-04-13T17:39:10.445Z,100230.69
2023-04-13T17:41:37.705Z,100224.28
2023-04-13T17:44:04.887Z,100224.09
2023-04-13T17:46:32.116Z,100221.72
2023-04-13T17:48:59.528Z,100225.03
2023-04-13T17:51:26.817Z,100228.81
2023-04-13T17:53:53.909Z,100231.59
2023-04-13T17:56:21.180Z,100229.72
2023-04-13T17:58:48.235Z,100229.22
2023-04-13T18:01:15.409Z,100231.66
2023-04-13T18:03:42.880Z,100243.53
2023-04-13T18:06:10.520Z,100234.94
2023-04-13T18:08:37.605Z,100229.03
2023-04-13T18:11:04.675Z,100236.06
2023-04-13T18:13:31.798Z,100224.28
2023-04-13T18:15:58.825Z,100241.53
2023-04-13T18:18:26.654Z,100241.53
2023-04-13T18:20:53.685Z,100248.28
2023-04-13T18:23:21.690Z,100256.91
2023-04-13T18:25:52.367Z,100247.22
2023-04-13T18:28:19.466Z,100262.50
2023-04-13T18:30:46.520Z,100246.66
2023-04-13T18:33:13.598Z,100254.44
2023-04-13T18:35:46.180Z,100267.06
2023-04-13T18:38:13.462Z,100271.63
2023-04-13T18:40:40.768Z,100275.91
2023-04-13T18:43:07.809Z,100275.88
2023-04-13T18:45:35.056Z,100287.66
2023-04-13T18:48:02.566Z,100272.03
2023-04-13T18:50:29.484Z,100284.09
2023-04-13T18:52:56.603Z,100304.47
2023-04-13T18:55:25.941Z,100307.38
2023-04-13T18:57:53.014Z,100312.13
2023-04-13T19:00:20.393Z,100320.97
2023-04-13T19:02:54.210Z,100322.00
2023-04-13T19:05:21.405Z,100338.88
2023-04-13T19:08:03.654Z,100342.06
2023-04-13T19:10:31.527Z,100350.06
2023-04-13T19:12:58.570Z,100349.53
2023-04-13T19:15:26.033Z,100367.19
2023-04-13T19:17:53.254Z,100376.59
2023-04-13T19:20:23.577Z,100379.84
2023-04-13T19:22:51.640Z,100374.72
2023-04-13T19:25:18.636Z,100372.06
2023-04-13T19:27:46.790Z,100376.91
2023-04-13T19:30:16.108Z,100384.41
2023-04-13T19:32:46.713Z,100393.25
2023-04-13T19:35:14.317Z,100385.16
2023-04-13T19:37:41.735Z,100398.34
2023-04-13T19:40:10.288Z,100396.72
2023-04-13T19:42:37.638Z,100397.22
2023-04-13T19:45:05.244Z,100403.09
2023-04-13T19:47:32.225Z,100404.97
2023-04-13T19:50:00.371Z,100401.75
2023-04-13T19:52:27.727Z,100404.91
2023-04-13T19:54:55.096Z,100413.22
2023-04-13T19:57:22.859Z,100408.06
2023-04-13T19:59:49.873Z,100405.06
2023-04-13T20:02:16.945Z,100404.47
2023-04-13T20:04:45.701Z,100413.03
2023-04-13T20:07:12.883Z,100413.78
2023-04-13T20:09:39.859Z,100409.69
2023-04-13T20:12:07.561Z,100418.25
2023-04-13T20:14:34.746Z,100412.53
2023-04-13T20:17:03.137Z,100417.84
2023-04-13T20:19:30.433Z,100401.66
2023-04-13T20:21:57.728Z,100412.88
2023-04-13T20:24:24.723Z,100404.44
2023-04-13T20:26:51.704Z,100394.06
2023-04-13T20:29:21.794Z,100397.25
2023-04-13T20:31:49.144Z,100404.75
2023-04-13T20:34:16.437Z,100393.41
2023-04-13T20:36:43.527Z,100384.25
2023-04-13T20:39:11.004Z,100382.00
2023-04-13T20:41:38.912Z,100392.16
2023-04-13T20:44:09.911Z,100386.75
2023-04-13T20:46:41.957Z,100378.31
2023-04-13T20:49:11.849Z,100380.69
2023-04-13T20:51:39.667Z,100376.34
2023-04-13T20:54:06.801Z,100370.09
2023-04-13T20:56:33.719Z,100376.19
2023-04-13T20:59:01.875Z,100362.19
2023-04-13T21:01:30.187Z,100366.66
2023-04-13T21:03:57.480Z,100369.75
2023-04-13T21:06:24.571Z,100376.66
2023-04-13T21:08:52.867Z,100373.88
2023-04-13T21:11:20.005Z,100375.34
2023-04-13T21:13:47.216Z,100376.09
2023-04-13T21:16:14.317Z,100377.88
2023-04-13T21:18:41.921Z,100369.53
2023-04-13T21:21:09.216Z,100376.41
2023-04-13T21:23:37.279Z,100366.09
2023-04-13T21:26:04.973Z,100373.31
2023-04-13T21:28:32.150Z,100377.50
2023-04-13T21:30:59.293Z,100365.13
2023-04-13T21:33:26.350Z,100368.03
2023-04-13T21:35:53.296Z,100361.31
2023-04-13T21:38:20.409Z,100358.31
2023-04-13T21:40:47.482Z,100357.19
2023-04-13T21:43:14.868Z,100355.22
2023-04-13T21:45:41.972Z,100345.84
2023-04-13T21:48:08.919Z,100343.09
2023-04-13T21:50:35.858Z,100351.00
2023-04-13T21:53:02.869Z,100347.44
2023-04-13T21:55:29.966Z,100364.16
2023-04-13T21:57:57.070Z,100355.50
2023-04-13T22:00:24.273Z,100359.69
2023-04-13T22:02:52.277Z,100363.91
2023-04-13T22:05:19.471Z,100365.66
2023-04-13T22:07:46.588Z,100373.59
2023-04-13T22:10:14.205Z,100366.88
2023-04-13T22:12:41.394Z,100366.53
2023-04-13T22:15:08.877Z,100380.34
2023-04-13T22:17:36.780Z,100377.34
2023-04-13T22:20:04.572Z,100373.63
2023-04-13T22:22:31.609Z,100372.47
2023-04-13T22:24:58.707Z,100389.56
2023-04-13T22:27:26.561Z,100400.25
2023-04-13T22:29:56.631Z,100400.72
2023-04-13T22:32:23.963Z,100393.28
2023-04-13T22:34:50.920Z,100398.63
2023-04-13T22:37:18.086Z,100402.34
2023-04-13T22:39:45.139Z,100395.13
2023-04-13T22:42:12.057Z,100398.47
2023-04-13T22:44:39.176Z,100391.03
2023-04-13T22:47:06.518Z,100387.78
2023-04-13T22:49:33.580Z,100393.47
2023-04-13T22:52:00.581Z,100387.09
2023-04-13T22:54:27.639Z,100392.09
2023-04-13T22:56:54.568Z,100388.94
2023-04-13T22:59:21.559Z,100377.44
2023-04-13T23:01:48.929Z,100380.13
2023-04-13T23:04:16.577Z,100384.88
2023-04-13T23:06:43.884Z,100378.72
2023-04-13T23:09:11.001Z,100375.25
2023-04-13T23:11:38.341Z,100370.16
2023-04-13T23:14:06.586Z,100371.78
2023-04-13T23:16:34.502Z,100379.78
2023-04-13T23:19:01.877Z,100377.94
2023-04-13T23:21:29.575Z,100365.16
2023-04-13T23:23:56.637Z,100355.03
2023-04-13T23:26:23.849Z,100342.50
2023-04-13T23:28:50.820Z,100352.94
2023-04-13T23:31:17.931Z,100351.66
2023-04-13T23:33:44.965Z,100355.59
2023-04-13T23:36:12.011Z,100348.16
2023-04-13T23:38:39.063Z,100349.31
2023-04-13T23:41:06.196Z,100347.44
2023-04-13T23:43:33.096Z,100355.78
2023-04-13T23:46:00.444Z,100364.13
2023-04-13T23:48:27.629Z,100354.25
2023-04-13T23:50:54.946Z,100351.91
2023-04-13T23:53:21.928Z,100362.38
2023-04-13T23:55:48.950Z,100351.44
2023-04-13T23:58:18.881Z,100349.91
